Sheridan, Nebraska
Current Conditions -  °F | °C
As of 12:55 PM on Monday 20 Oct 2014 (Local Time) from KHDE Reporting Station
Clear Clear  
Wind Chill: 70°   Ceiling: Unl
Heat Index: 70°   Visibility: 10mi
Dew Point: 41°   Wind: 0mph
Humidity: 36%   Direction: NA
Pressure: 30.13"   Gusts: NA
Location:  40.4958°N, 99.3198°W
Report Text: KHDE 201755Z AUTO 00000KT 10SM CLR 21/05 A3013 RMK AO2 T02100052 10210 20050
Loading
Personal Weather Stations






























Interactive Weather Map
Tropical Storm Tracking
New forecast layout! Learn more

10-Day Weather Forecast

Advertisements
Track Severe Weather on mobile